createdAt,value
2023-03-03T00:00:26.418Z,0.00
2023-03-03T00:01:26.406Z,0.00
2023-03-03T00:02:26.426Z,0.00
2023-03-03T00:03:26.461Z,0.00
2023-03-03T00:04:26.346Z,0.00
2023-03-03T00:05:26.321Z,0.00
2023-03-03T00:06:26.300Z,0.00
2023-03-03T00:07:26.286Z,0.00
2023-03-03T00:08:26.261Z,0.00
2023-03-03T00:09:26.240Z,0.00
2023-03-03T00:10:26.216Z,0.00
2023-03-03T00:11:26.204Z,0.00
2023-03-03T00:12:26.185Z,0.00
2023-03-03T00:13:26.160Z,0.00
2023-03-03T00:14:26.153Z,0.00
2023-03-03T00:15:26.127Z,0.00
2023-03-03T00:16:26.217Z,0.00
2023-03-03T00:17:26.093Z,0.00
2023-03-03T00:18:26.060Z,0.00
2023-03-03T00:19:26.038Z,0.00
2023-03-03T00:20:26.024Z,0.00
2023-03-03T00:21:25.997Z,0.00
2023-03-03T00:22:25.979Z,0.00
2023-03-03T00:23:25.956Z,0.00
2023-03-03T00:24:25.940Z,0.00
2023-03-03T00:25:25.916Z,0.00
2023-03-03T00:26:25.901Z,0.00
2023-03-03T00:27:25.886Z,0.00
2023-03-03T00:28:25.871Z,0.00
2023-03-03T00:29:25.840Z,0.00
2023-03-03T00:30:25.826Z,0.00
2023-03-03T00:31:25.806Z,0.00
2023-03-03T00:32:25.882Z,0.00
2023-03-03T00:33:25.768Z,0.00
2023-03-03T00:34:25.742Z,0.00
2023-03-03T00:35:25.777Z,0.00
2023-03-03T00:36:25.702Z,0.00
2023-03-03T00:37:25.676Z,0.00
2023-03-03T00:38:25.666Z,0.00
2023-03-03T00:39:25.642Z,0.00
2023-03-03T00:40:25.617Z,0.00
2023-03-03T00:41:25.602Z,0.00
2023-03-03T00:42:25.580Z,0.00
2023-03-03T00:43:25.560Z,0.00
2023-03-03T00:44:25.541Z,0.00
2023-03-03T00:45:25.525Z,0.00
2023-03-03T00:46:25.520Z,0.00
2023-03-03T00:47:25.476Z,0.00
2023-03-03T00:48:25.455Z,0.00
2023-03-03T00:49:25.444Z,0.00
2023-03-03T00:50:25.422Z,0.00
2023-03-03T00:51:25.406Z,0.00
2023-03-03T00:52:25.388Z,0.00
2023-03-03T00:53:25.360Z,0.00
2023-03-03T00:54:25.337Z,0.00
2023-03-03T00:55:25.314Z,0.00
2023-03-03T00:56:25.293Z,0.00
2023-03-03T00:57:25.274Z,0.00
2023-03-03T00:58:25.252Z,0.00
2023-03-03T00:59:25.242Z,0.00
2023-03-03T01:00:25.224Z,0.00
2023-03-03T01:01:25.245Z,0.00
2023-03-03T01:02:25.202Z,0.00
2023-03-03T01:03:25.172Z,0.00
2023-03-03T01:04:25.135Z,0.00
2023-03-03T01:05:25.118Z,0.00
2023-03-03T01:06:25.096Z,0.00
2023-03-03T01:07:25.070Z,0.00
2023-03-03T01:08:25.054Z,0.00
2023-03-03T01:09:25.030Z,0.00
2023-03-03T01:10:25.010Z,0.00
2023-03-03T01:11:24.991Z,0.00
2023-03-03T01:12:24.972Z,0.00
2023-03-03T01:13:24.955Z,0.00
2023-03-03T01:14:24.957Z,0.00
2023-03-03T04:52:41.492Z,0.00
2023-03-03T04:53:21.224Z,0.00
2023-03-03T04:54:21.211Z,0.00
2023-03-03T04:55:21.238Z,0.00
2023-03-03T04:56:21.249Z,0.00
2023-03-03T04:57:21.162Z,0.00
2023-03-03T04:58:21.142Z,0.00
2023-03-03T04:59:21.168Z,0.00
2023-03-03T05:00:21.145Z,0.00
2023-03-03T05:01:21.069Z,0.00
2023-03-03T05:02:21.084Z,0.00
2023-03-03T05:03:21.007Z,0.00
2023-03-03T05:04:21.025Z,0.00
2023-03-03T05:05:20.993Z,0.00
2023-03-03T05:06:20.980Z,0.00
2023-03-03T05:07:20.938Z,0.00
2023-03-03T05:08:20.909Z,0.00
2023-03-03T05:09:20.917Z,0.00
2023-03-03T05:10:20.864Z,0.00
2023-03-03T05:11:20.845Z,0.00
2023-03-03T05:12:20.814Z,0.00
2023-03-03T05:13:20.798Z,0.00
2023-03-03T05:14:20.821Z,0.00
2023-03-03T05:15:20.748Z,0.00
2023-03-03T05:16:20.744Z,0.00
2023-03-03T05:17:20.718Z,0.00
2023-03-03T05:18:20.696Z,0.00
2023-03-03T05:19:20.665Z,0.00
2023-03-03T05:20:20.653Z,0.00
2023-03-03T05:21:20.620Z,0.00
2023-03-03T05:22:20.603Z,0.00
2023-03-03T05:23:20.587Z,0.00
2023-03-03T05:24:20.563Z,0.00
2023-03-03T05:25:20.542Z,0.00
2023-03-03T05:26:20.515Z,0.00
2023-03-03T05:27:20.520Z,0.00
2023-03-03T05:28:20.506Z,0.00
2023-03-03T05:29:20.454Z,0.00
2023-03-03T05:30:20.477Z,0.00
2023-03-03T05:31:20.440Z,0.00
2023-03-03T05:32:20.464Z,0.00
2023-03-03T05:33:20.365Z,0.00
2023-03-03T05:34:20.373Z,0.00
2023-03-03T05:35:20.382Z,0.00
2023-03-03T05:36:20.307Z,0.00
2023-03-03T05:37:20.298Z,0.00
2023-03-03T05:38:20.270Z,0.00
2023-03-03T05:39:20.248Z,0.00
2023-03-03T05:40:20.219Z,0.00
2023-03-03T05:41:20.235Z,0.00
2023-03-03T05:42:20.347Z,0.00
2023-03-03T05:43:20.157Z,0.00
2023-03-03T05:44:20.820Z,0.00
2023-03-03T05:45:20.119Z,0.00
2023-03-03T05:46:20.176Z,0.00
2023-03-03T05:47:20.072Z,0.00
2023-03-03T05:48:20.048Z,0.00
2023-03-03T05:49:20.035Z,0.00
2023-03-03T05:50:20.010Z,0.00
2023-03-03T05:51:20.002Z,0.00
2023-03-03T05:52:19.968Z,0.00
2023-03-03T05:53:19.963Z,0.00
2023-03-03T05:54:19.962Z,0.00
2023-03-03T05:55:19.900Z,0.00
2023-03-03T05:56:19.926Z,0.00
2023-03-03T05:57:19.859Z,0.00
2023-03-03T05:58:19.839Z,0.00
2023-03-03T05:59:19.818Z,0.00
2023-03-03T06:00:19.828Z,0.00
2023-03-03T06:01:19.776Z,0.00
2023-03-03T06:02:19.756Z,0.00
2023-03-03T06:03:19.773Z,0.00
2023-03-03T06:04:19.745Z,0.00
2023-03-03T06:05:19.694Z,0.00
2023-03-03T06:06:19.672Z,0.00
2023-03-03T06:07:19.662Z,0.00
2023-03-03T06:08:19.632Z,0.00
2023-03-03T06:09:19.610Z,0.00
2023-03-03T06:10:19.587Z,0.00
2023-03-03T06:11:19.564Z,0.00
2023-03-03T06:12:19.547Z,0.00
2023-03-03T06:13:19.532Z,5.63
2023-03-03T06:14:19.518Z,5.63
2023-03-03T06:15:19.600Z,5.63
2023-03-03T06:16:19.554Z,5.63
2023-03-03T06:17:19.438Z,5.63
2023-03-03T06:18:19.426Z,5.63
2023-03-03T06:19:19.395Z,5.63
2023-03-03T06:20:19.388Z,5.63
2023-03-03T06:21:19.352Z,5.63
2023-03-03T06:22:19.335Z,5.63
2023-03-03T06:23:19.308Z,5.63
2023-03-03T06:24:19.295Z,5.63
2023-03-03T06:25:19.290Z,11.25
2023-03-03T06:26:19.250Z,11.25
2023-03-03T06:27:19.225Z,11.25
2023-03-03T06:28:19.217Z,11.25
2023-03-03T06:29:19.190Z,11.25
2023-03-03T06:30:19.676Z,11.25
2023-03-03T06:31:19.581Z,11.25
2023-03-03T06:32:19.156Z,11.25
2023-03-03T06:33:19.098Z,11.25
2023-03-03T06:34:19.073Z,16.88
2023-03-03T06:35:19.186Z,16.88
2023-03-03T06:36:19.033Z,16.88
2023-03-03T06:37:19.008Z,16.88
2023-03-03T06:38:19.009Z,16.88
2023-03-03T06:39:18.978Z,16.88
2023-03-03T06:40:18.946Z,16.88
2023-03-03T06:41:18.935Z,16.88
2023-03-03T06:42:18.905Z,22.50
2023-03-03T06:43:18.895Z,22.50
2023-03-03T06:44:18.871Z,22.50
2023-03-03T06:45:18.864Z,22.50
2023-03-03T06:46:18.833Z,22.50
2023-03-03T06:47:18.806Z,22.50
2023-03-03T06:48:18.787Z,22.50
2023-03-03T06:49:18.769Z,22.50
2023-03-03T06:50:18.736Z,28.13
2023-03-03T06:51:18.737Z,28.13
2023-03-03T06:52:18.692Z,28.13
2023-03-03T06:53:18.680Z,28.13
2023-03-03T06:54:18.666Z,28.13
2023-03-03T06:55:18.644Z,28.13
2023-03-03T06:56:18.620Z,28.13
2023-03-03T06:57:18.586Z,33.75
2023-03-03T06:58:18.578Z,33.75
2023-03-03T06:59:18.543Z,33.75
2023-03-03T07:00:18.538Z,33.75
2023-03-03T07:01:18.534Z,33.75
2023-03-03T07:02:18.490Z,33.75
2023-03-03T07:03:18.476Z,39.38
2023-03-03T07:04:18.461Z,39.38
2023-03-03T07:05:18.450Z,39.38
2023-03-03T07:06:18.419Z,39.38
2023-03-03T07:07:18.389Z,45.00
2023-03-03T07:08:18.375Z,45.00
2023-03-03T07:09:18.361Z,45.00
2023-03-03T07:10:18.329Z,50.63
2023-03-03T07:11:18.320Z,50.63
2023-03-03T07:12:18.290Z,56.25
2023-03-03T07:13:18.276Z,56.25
2023-03-03T07:14:18.251Z,50.63
2023-03-03T07:15:18.243Z,50.63
2023-03-03T07:16:18.235Z,50.63
2023-03-03T07:17:25.419Z,50.63
2023-03-03T07:19:22.173Z,50.63
2023-03-03T07:20:22.124Z,50.63
2023-03-03T07:22:26.145Z,45.00
2023-03-03T07:23:26.063Z,45.00
2023-03-03T07:25:30.052Z,39.38
2023-03-03T07:26:29.996Z,50.63
2023-03-03T07:28:22.902Z,50.63
2023-03-03T07:29:22.864Z,56.25
2023-03-03T07:30:22.842Z,56.25
2023-03-03T07:31:22.840Z,56.25
2023-03-03T07:32:22.828Z,50.63
2023-03-03T07:33:22.782Z,50.63
2023-03-03T07:34:22.766Z,50.63
2023-03-03T07:35:22.780Z,50.63
2023-03-03T07:36:22.723Z,50.63
2023-03-03T07:37:22.704Z,50.63
2023-03-03T07:38:22.684Z,56.25
2023-03-03T07:39:22.664Z,56.25
2023-03-03T07:40:22.646Z,56.25
2023-03-03T07:41:22.640Z,56.25
2023-03-03T07:42:22.611Z,61.88
2023-03-03T07:43:22.589Z,61.88
2023-03-03T07:44:22.574Z,61.88
2023-03-03T07:45:22.577Z,56.25
2023-03-03T07:46:22.560Z,61.88
2023-03-03T07:47:22.515Z,61.88
2023-03-03T07:48:22.500Z,56.25
2023-03-03T07:49:22.476Z,56.25
2023-03-03T07:50:22.459Z,56.25
2023-03-03T07:51:22.452Z,56.25
2023-03-03T07:52:22.427Z,56.25
2023-03-03T07:53:22.402Z,61.88
2023-03-03T07:54:22.435Z,56.25
2023-03-03T07:55:22.362Z,56.25
2023-03-03T07:56:22.344Z,61.88
2023-03-03T07:57:22.329Z,61.88
2023-03-03T07:58:22.303Z,61.88
2023-03-03T07:59:22.302Z,67.50
2023-03-03T08:00:22.298Z,78.75
2023-03-03T08:01:22.253Z,73.13
2023-03-03T08:02:22.229Z,84.38
2023-03-03T08:03:22.211Z,84.38
2023-03-03T08:04:22.322Z,78.75
2023-03-03T08:05:22.284Z,73.13
2023-03-03T08:06:22.154Z,73.13
2023-03-03T08:07:22.153Z,78.75
2023-03-03T08:08:22.128Z,78.75
2023-03-03T08:09:22.103Z,84.38
2023-03-03T08:10:22.093Z,78.75
2023-03-03T08:11:22.065Z,78.75
2023-03-03T08:12:22.040Z,67.50
2023-03-03T08:13:22.044Z,61.88
2023-03-03T08:14:22.000Z,67.50
2023-03-03T08:15:21.987Z,61.88
2023-03-03T08:16:22.017Z,61.88
2023-03-03T08:17:21.945Z,56.25
2023-03-03T08:18:21.926Z,56.25
2023-03-03T08:19:21.907Z,61.88
2023-03-03T08:20:21.889Z,61.88
2023-03-03T08:21:21.878Z,61.88
2023-03-03T08:22:21.849Z,61.88
2023-03-03T08:23:21.855Z,56.25
2023-03-03T08:24:21.822Z,61.88
2023-03-03T08:25:21.794Z,56.25
2023-03-03T08:26:21.796Z,61.88
2023-03-03T08:27:21.757Z,61.88
2023-03-03T08:28:21.738Z,61.88
2023-03-03T08:29:21.720Z,61.88
2023-03-03T08:30:21.702Z,56.25
2023-03-03T08:31:38.230Z,56.25
2023-03-03T08:32:21.772Z,61.88
2023-03-03T08:33:21.649Z,61.88
2023-03-03T08:34:21.631Z,73.13
2023-03-03T08:35:21.672Z,73.13
2023-03-03T08:36:21.618Z,67.50
2023-03-03T08:37:21.590Z,73.13
2023-03-03T08:38:21.557Z,84.38
2023-03-03T08:39:21.540Z,90.00
2023-03-03T08:40:21.540Z,101.25
2023-03-03T08:41:21.554Z,101.25
2023-03-03T08:42:21.515Z,112.50
2023-03-03T08:43:21.497Z,118.13
2023-03-03T08:44:21.458Z,112.50
2023-03-03T08:45:21.435Z,95.63
2023-03-03T08:46:21.461Z,90.00
2023-03-03T08:47:21.403Z,95.63
2023-03-03T08:48:21.393Z,101.25
2023-03-03T08:49:21.366Z,101.25
2023-03-03T08:50:21.350Z,112.50
2023-03-03T08:51:21.344Z,123.75
2023-03-03T08:52:21.320Z,151.88
2023-03-03T08:53:21.304Z,196.88
2023-03-03T08:54:21.290Z,225.00
2023-03-03T08:55:21.262Z,264.38
2023-03-03T08:56:21.247Z,286.88
2023-03-03T08:57:21.234Z,264.38
2023-03-03T08:58:23.820Z,275.63
2023-03-03T08:59:21.198Z,354.38
2023-03-03T09:00:21.201Z,343.13
2023-03-03T09:01:21.208Z,376.88
2023-03-03T09:02:21.150Z,286.88
2023-03-03T09:03:21.144Z,388.13
2023-03-03T09:04:21.143Z,461.25
2023-03-03T09:05:21.116Z,365.63
2023-03-03T09:06:21.088Z,292.50
2023-03-03T09:07:21.099Z,225.00
2023-03-03T09:08:21.056Z,320.63
2023-03-03T09:09:21.049Z,320.63
2023-03-03T09:10:21.026Z,388.13
2023-03-03T09:11:21.016Z,410.63
2023-03-03T09:12:21.008Z,320.63
2023-03-03T09:13:20.984Z,303.75
2023-03-03T09:14:20.980Z,270.00
2023-03-03T09:15:20.962Z,225.00
2023-03-03T09:16:20.986Z,213.75
2023-03-03T09:17:20.926Z,213.75
2023-03-03T09:18:20.908Z,208.13
2023-03-03T09:19:20.892Z,225.00
2023-03-03T09:20:20.885Z,208.13
2023-03-03T09:21:20.864Z,157.50
2023-03-03T09:22:20.862Z,168.75
2023-03-03T09:23:20.838Z,168.75
2023-03-03T09:24:20.825Z,191.25
2023-03-03T09:25:20.811Z,163.13
2023-03-03T09:26:20.796Z,146.25
2023-03-03T09:27:20.786Z,157.50
2023-03-03T09:28:20.766Z,157.50
2023-03-03T09:29:20.758Z,168.75
2023-03-03T09:30:20.737Z,163.13
2023-03-03T09:31:20.748Z,174.38
2023-03-03T09:32:20.730Z,168.75
2023-03-03T09:33:20.692Z,191.25
2023-03-03T09:34:20.685Z,225.00
2023-03-03T09:35:20.682Z,253.13
2023-03-03T09:36:20.646Z,270.00
2023-03-03T09:37:20.644Z,230.63
2023-03-03T09:38:20.624Z,213.75
2023-03-03T09:39:20.624Z,686.25
2023-03-03T09:40:20.599Z,635.63
2023-03-03T09:41:20.585Z,770.63
2023-03-03T09:42:20.576Z,658.13
2023-03-03T09:43:20.554Z,900.00
2023-03-03T09:44:20.540Z,838.13
2023-03-03T09:45:20.529Z,883.13
2023-03-03T09:46:20.531Z,708.75
2023-03-03T09:47:22.326Z,399.38
2023-03-03T09:48:20.493Z,950.63
2023-03-03T09:49:20.471Z,978.75
2023-03-03T09:50:20.469Z,916.88
2023-03-03T09:51:20.448Z,956.25
2023-03-03T09:52:20.437Z,894.38
2023-03-03T09:53:20.427Z,866.25
2023-03-03T09:54:20.417Z,562.50
2023-03-03T09:55:20.406Z,888.75
2023-03-03T09:56:20.399Z,950.63
2023-03-03T09:57:20.396Z,1046.25
2023-03-03T09:58:20.375Z,1023.75
2023-03-03T09:59:20.368Z,1023.75
2023-03-03T10:00:20.365Z,1018.13
2023-03-03T10:01:20.340Z,1001.25
2023-03-03T10:02:20.328Z,961.88
2023-03-03T10:03:20.343Z,866.25
2023-03-03T10:04:20.343Z,708.75
2023-03-03T10:05:20.325Z,466.88
2023-03-03T10:06:20.304Z,309.38
2023-03-03T10:07:20.285Z,360.00
2023-03-03T10:08:20.278Z,680.63
2023-03-03T10:09:20.271Z,1018.13
2023-03-03T10:10:20.261Z,1046.25
2023-03-03T10:11:20.285Z,1063.13
2023-03-03T10:12:20.246Z,990.00
2023-03-03T10:13:20.234Z,1063.13
2023-03-03T10:14:20.230Z,1091.25
2023-03-03T10:15:20.234Z,984.38
2023-03-03T10:16:20.269Z,973.13
2023-03-03T10:17:20.204Z,900.00
2023-03-03T10:18:20.200Z,1051.88
2023-03-03T10:19:20.189Z,1012.50
2023-03-03T10:20:20.188Z,945.00
2023-03-03T10:21:20.177Z,1051.88
2023-03-03T10:22:20.168Z,973.13
2023-03-03T10:23:20.161Z,928.13
2023-03-03T10:24:20.155Z,838.13
2023-03-03T10:25:20.174Z,995.63
2023-03-03T10:26:20.140Z,1018.13
2023-03-03T10:27:20.140Z,984.38
2023-03-03T10:28:20.134Z,1051.88
2023-03-03T10:29:22.860Z,1063.13
2023-03-03T10:30:33.227Z,1068.75
2023-03-03T10:31:20.759Z,1096.88
2023-03-03T10:32:20.838Z,1119.38
2023-03-03T10:33:20.290Z,1080.00
2023-03-03T10:34:20.095Z,1074.38
2023-03-03T10:35:20.613Z,1080.00
2023-03-03T10:36:20.159Z,1068.75
2023-03-03T10:37:20.089Z,1108.13
2023-03-03T10:38:20.088Z,1130.63
2023-03-03T10:39:20.075Z,1063.13
2023-03-03T10:40:20.096Z,1096.88
2023-03-03T10:41:20.069Z,1085.63
2023-03-03T10:42:20.059Z,1040.63
2023-03-03T10:43:31.042Z,1040.63
2023-03-03T10:44:20.052Z,1091.25
2023-03-03T10:45:20.048Z,1096.88
2023-03-03T10:46:20.142Z,1130.63
2023-03-03T10:47:20.042Z,1113.75
2023-03-03T10:48:20.037Z,1147.50
2023-03-03T10:49:20.037Z,1136.25
2023-03-03T10:50:20.089Z,1096.88
2023-03-03T10:51:20.022Z,1119.38
2023-03-03T10:52:20.043Z,1136.25
2023-03-03T10:53:20.019Z,1119.38
2023-03-03T10:54:20.008Z,1096.88
2023-03-03T10:55:20.015Z,1091.25
2023-03-03T10:56:20.009Z,1125.00
2023-03-03T10:57:20.003Z,1130.63
2023-03-03T10:58:20.056Z,1108.13
2023-03-03T10:59:20.003Z,1113.75
2023-03-03T11:00:20.067Z,1113.75
2023-03-03T11:01:21.018Z,1119.38
2023-03-03T11:02:19.989Z,1125.00
2023-03-03T11:03:19.980Z,1102.50
2023-03-03T11:04:20.031Z,1074.38
2023-03-03T11:05:19.977Z,1074.38
2023-03-03T11:06:19.973Z,1108.13
2023-03-03T11:07:19.976Z,1046.25
2023-03-03T11:08:19.967Z,1063.13
2023-03-03T11:09:19.962Z,1023.75
2023-03-03T11:10:20.020Z,1051.88
2023-03-03T11:11:20.221Z,1063.13
2023-03-03T11:12:22.431Z,1006.88
2023-03-03T11:13:19.956Z,950.63
2023-03-03T11:14:19.949Z,883.13
2023-03-03T11:15:19.952Z,866.25
2023-03-03T11:16:19.962Z,855.00
2023-03-03T11:17:19.946Z,832.50
2023-03-03T11:18:22.295Z,804.38
2023-03-03T11:19:19.940Z,798.75
2023-03-03T11:20:19.953Z,793.13
2023-03-03T11:21:19.943Z,787.50
2023-03-03T11:22:19.940Z,787.50
2023-03-03T11:23:19.934Z,781.88
2023-03-03T11:24:19.931Z,770.63
2023-03-03T11:25:19.936Z,776.25
2023-03-03T11:26:19.943Z,770.63
2023-03-03T11:27:19.928Z,776.25
2023-03-03T11:28:19.935Z,765.00
2023-03-03T11:29:19.928Z,759.38
2023-03-03T11:30:19.927Z,759.38
2023-03-03T11:31:20.036Z,748.13
2023-03-03T11:32:19.960Z,748.13
2023-03-03T11:33:19.925Z,753.75
2023-03-03T11:34:19.924Z,748.13
2023-03-03T11:35:20.016Z,759.38
2023-03-03T11:36:19.922Z,753.75
2023-03-03T11:37:19.916Z,759.38
2023-03-03T11:38:19.917Z,753.75
2023-03-03T11:39:19.911Z,742.50
2023-03-03T11:40:19.911Z,742.50
2023-03-03T11:41:19.908Z,748.13
2023-03-03T11:42:21.454Z,736.88
2023-03-03T11:43:35.396Z,742.50
2023-03-03T11:44:19.903Z,753.75
2023-03-03T11:45:19.928Z,736.88
2023-03-03T11:46:19.949Z,736.88
2023-03-03T11:47:19.905Z,736.88
2023-03-03T11:48:19.904Z,731.25
2023-03-03T11:49:19.903Z,736.88
2023-03-03T11:50:19.895Z,742.50
2023-03-03T11:51:19.906Z,731.25
2023-03-03T11:52:19.899Z,731.25
2023-03-03T11:53:19.917Z,725.63
2023-03-03T11:54:19.892Z,725.63
2023-03-03T11:55:22.547Z,720.00
2023-03-03T11:56:19.892Z,731.25
2023-03-03T11:57:19.891Z,742.50
2023-03-03T11:58:19.889Z,753.75
2023-03-03T11:59:19.888Z,770.63
2023-03-03T12:00:19.900Z,821.25
2023-03-03T12:01:19.901Z,967.50
2023-03-03T12:02:19.972Z,1040.63
2023-03-03T12:03:19.886Z,1051.88
2023-03-03T12:04:19.886Z,888.75
2023-03-03T12:05:19.902Z,686.25
2023-03-03T12:06:19.889Z,646.88
2023-03-03T12:07:20.123Z,630.00
2023-03-03T12:08:19.914Z,618.75
2023-03-03T12:09:19.880Z,613.13
2023-03-03T12:10:19.887Z,607.50
2023-03-03T12:11:19.875Z,613.13
2023-03-03T12:12:19.880Z,618.75
2023-03-03T12:13:19.876Z,618.75
2023-03-03T12:14:19.880Z,618.75
2023-03-03T12:15:19.872Z,624.38
2023-03-03T12:16:19.919Z,618.75
2023-03-03T12:17:19.881Z,607.50
2023-03-03T12:18:19.861Z,613.13
2023-03-03T12:19:19.861Z,624.38
2023-03-03T12:20:19.859Z,641.25
2023-03-03T12:21:19.853Z,630.00
2023-03-03T12:22:19.870Z,618.75
2023-03-03T12:23:19.876Z,624.38
2023-03-03T12:24:19.873Z,624.38
2023-03-03T12:25:19.879Z,613.13
2023-03-03T12:26:19.867Z,618.75
2023-03-03T12:27:19.870Z,579.38
2023-03-03T12:28:19.861Z,545.63
2023-03-03T12:29:19.861Z,534.38
2023-03-03T12:30:19.859Z,528.75
2023-03-03T12:31:19.865Z,517.50
2023-03-03T12:32:19.918Z,511.88
2023-03-03T12:33:19.848Z,500.63
2023-03-03T12:34:19.858Z,489.38
2023-03-03T12:35:19.896Z,478.13
2023-03-03T12:36:19.837Z,472.50
2023-03-03T12:37:19.865Z,466.88
2023-03-03T12:38:19.834Z,461.25
2023-03-03T12:39:33.712Z,455.63
2023-03-03T12:40:19.829Z,455.63
2023-03-03T12:41:19.830Z,438.75
2023-03-03T12:42:19.814Z,433.13
2023-03-03T12:43:19.817Z,427.50
2023-03-03T12:44:19.809Z,416.25
2023-03-03T12:45:19.812Z,410.63
2023-03-03T12:46:19.870Z,405.00
2023-03-03T12:47:22.238Z,393.75
2023-03-03T12:48:19.789Z,388.13
2023-03-03T12:49:19.786Z,376.88
2023-03-03T12:50:19.788Z,371.25
2023-03-03T12:51:19.788Z,365.63
2023-03-03T12:52:19.779Z,365.63
2023-03-03T12:53:19.778Z,354.38
2023-03-03T12:54:19.763Z,348.75
2023-03-03T12:55:19.781Z,343.13
2023-03-03T12:56:19.763Z,337.50
2023-03-03T12:57:19.753Z,331.88
2023-03-03T12:58:19.750Z,326.25
2023-03-03T12:59:19.766Z,315.00
2023-03-03T13:00:19.762Z,309.38
2023-03-03T13:01:19.749Z,303.75
2023-03-03T13:02:19.744Z,292.50
2023-03-03T13:03:19.747Z,292.50
2023-03-03T13:04:19.795Z,286.88
2023-03-03T13:05:19.722Z,281.25
2023-03-03T13:06:19.706Z,275.63
2023-03-03T13:07:19.787Z,270.00
2023-03-03T13:08:19.740Z,264.38
2023-03-03T13:09:19.756Z,258.75
2023-03-03T13:10:19.690Z,253.13
2023-03-03T13:11:19.694Z,241.88
2023-03-03T13:12:19.678Z,241.88
2023-03-03T13:13:19.678Z,230.63
2023-03-03T13:14:19.664Z,219.38
2023-03-03T13:15:21.340Z,219.38
2023-03-03T13:16:22.143Z,213.75
2023-03-03T13:17:19.757Z,208.13
2023-03-03T13:18:19.652Z,202.50
2023-03-03T13:19:19.641Z,191.25
2023-03-03T13:20:19.641Z,185.63
2023-03-03T13:21:19.632Z,180.00
2023-03-03T13:22:19.633Z,174.38
2023-03-03T13:23:19.623Z,168.75
2023-03-03T13:24:19.768Z,157.50
2023-03-03T13:25:19.669Z,157.50
2023-03-03T13:26:19.653Z,151.88
2023-03-03T13:27:19.622Z,146.25
2023-03-03T13:28:19.600Z,140.63
2023-03-03T13:29:19.617Z,140.63
2023-03-03T13:30:19.594Z,135.00
2023-03-03T13:31:19.617Z,129.38
2023-03-03T13:32:19.607Z,129.38
2023-03-03T13:33:19.570Z,123.75
2023-03-03T13:34:19.559Z,123.75
2023-03-03T13:35:19.597Z,123.75
2023-03-03T13:36:19.570Z,118.13
2023-03-03T13:37:19.539Z,112.50
2023-03-03T13:38:19.543Z,112.50
2023-03-03T13:39:19.533Z,112.50
2023-03-03T13:40:19.522Z,106.88
2023-03-03T13:41:19.512Z,106.88
2023-03-03T13:42:19.502Z,106.88
2023-03-03T13:43:19.495Z,101.25
2023-03-03T13:44:19.492Z,101.25
2023-03-03T13:45:19.478Z,101.25
2023-03-03T13:46:19.475Z,101.25
2023-03-03T13:47:19.469Z,95.63
2023-03-03T13:48:19.454Z,95.63
2023-03-03T13:49:19.444Z,95.63
2023-03-03T13:50:19.432Z,95.63
2023-03-03T13:51:19.428Z,95.63
2023-03-03T13:52:19.439Z,95.63
2023-03-03T13:53:19.400Z,95.63
2023-03-03T13:54:19.397Z,95.63
2023-03-03T13:55:21.532Z,95.63
2023-03-03T13:56:19.384Z,95.63
2023-03-03T13:57:19.365Z,90.00
2023-03-03T13:58:19.354Z,90.00
2023-03-03T13:59:19.339Z,90.00
2023-03-03T14:00:19.353Z,90.00
2023-03-03T14:01:19.356Z,90.00
2023-03-03T14:02:19.312Z,84.38
2023-03-03T14:03:19.294Z,84.38
2023-03-03T14:04:19.494Z,84.38
2023-03-03T14:05:19.272Z,84.38
2023-03-03T14:06:19.257Z,84.38
2023-03-03T14:07:19.347Z,78.75
2023-03-03T14:08:19.240Z,78.75
2023-03-03T14:09:19.222Z,78.75
2023-03-03T14:10:19.222Z,78.75
2023-03-03T14:11:19.211Z,78.75
2023-03-03T14:12:19.197Z,78.75
2023-03-03T14:13:19.391Z,73.13
2023-03-03T14:14:19.171Z,73.13
2023-03-03T14:15:19.153Z,73.13
2023-03-03T14:16:19.200Z,73.13
2023-03-03T14:17:21.315Z,73.13
2023-03-03T14:18:19.128Z,73.13
2023-03-03T14:19:19.104Z,73.13
2023-03-03T14:20:19.124Z,73.13
2023-03-03T14:21:19.734Z,67.50
2023-03-03T14:22:19.381Z,67.50
2023-03-03T14:23:19.062Z,67.50
2023-03-03T14:24:19.041Z,67.50
2023-03-03T14:25:19.041Z,67.50
2023-03-03T14:26:19.034Z,67.50
2023-03-03T14:27:19.057Z,67.50
2023-03-03T14:28:18.996Z,67.50
2023-03-03T14:29:18.979Z,67.50
2023-03-03T14:30:18.973Z,67.50
2023-03-03T14:31:19.106Z,61.88
2023-03-03T14:32:18.968Z,61.88
2023-03-03T14:33:18.925Z,61.88
2023-03-03T14:34:18.926Z,61.88
2023-03-03T14:35:18.904Z,61.88
2023-03-03T14:36:18.897Z,61.88
2023-03-03T14:37:18.887Z,61.88
2023-03-03T14:38:18.872Z,61.88
2023-03-03T14:39:18.847Z,61.88
2023-03-03T14:40:18.840Z,61.88
2023-03-03T14:41:18.821Z,61.88
2023-03-03T14:42:18.811Z,56.25
2023-03-03T14:43:18.808Z,56.25
2023-03-03T14:44:18.784Z,56.25
2023-03-03T14:45:29.060Z,56.25
2023-03-03T14:46:18.785Z,56.25
2023-03-03T14:47:18.743Z,56.25
2023-03-03T14:48:18.735Z,56.25
2023-03-03T14:49:18.732Z,56.25
2023-03-03T14:50:18.710Z,56.25
2023-03-03T14:51:18.690Z,56.25
2023-03-03T14:52:18.694Z,56.25
2023-03-03T14:53:18.666Z,56.25
2023-03-03T14:54:18.656Z,56.25
2023-03-03T14:55:18.636Z,50.63
2023-03-03T14:56:18.630Z,50.63
2023-03-03T14:57:18.612Z,50.63
2023-03-03T14:58:18.609Z,50.63
2023-03-03T14:59:18.585Z,50.63
2023-03-03T15:00:18.572Z,50.63
2023-03-03T15:01:18.612Z,50.63
2023-03-03T15:02:18.554Z,50.63
2023-03-03T15:03:18.553Z,50.63
2023-03-03T15:04:18.522Z,50.63
2023-03-03T15:05:18.584Z,45.00
2023-03-03T15:06:18.495Z,45.00
2023-03-03T15:07:18.485Z,45.00
2023-03-03T15:08:18.597Z,45.00
2023-03-03T15:09:18.461Z,45.00
2023-03-03T15:10:18.439Z,45.00
2023-03-03T15:11:18.422Z,45.00
2023-03-03T15:12:18.410Z,45.00
2023-03-03T15:13:18.399Z,45.00
2023-03-03T15:14:18.380Z,45.00
2023-03-03T15:15:18.381Z,45.00
2023-03-03T15:16:18.421Z,45.00
2023-03-03T15:17:18.352Z,45.00
2023-03-03T15:18:18.337Z,45.00
2023-03-03T15:19:18.311Z,45.00
2023-03-03T15:20:18.301Z,45.00
2023-03-03T15:21:18.284Z,45.00
2023-03-03T15:22:18.281Z,45.00
2023-03-03T15:23:18.255Z,45.00
2023-03-03T15:24:18.272Z,45.00
2023-03-03T15:25:20.975Z,45.00
2023-03-03T15:26:18.214Z,45.00
2023-03-03T15:27:18.198Z,39.38
2023-03-03T15:28:18.252Z,39.38
2023-03-03T15:29:18.168Z,39.38
2023-03-03T15:30:18.152Z,39.38
2023-03-03T15:31:18.223Z,39.38
2023-03-03T15:32:18.181Z,39.38
2023-03-03T15:33:18.170Z,33.75
2023-03-03T15:34:18.096Z,33.75
2023-03-03T15:35:18.080Z,33.75
2023-03-03T15:36:18.065Z,33.75
2023-03-03T15:37:18.057Z,33.75
2023-03-03T15:38:18.037Z,33.75
2023-03-03T15:39:18.049Z,33.75
2023-03-03T15:40:18.056Z,33.75
2023-03-03T15:41:17.997Z,33.75
2023-03-03T15:42:17.984Z,33.75
2023-03-03T15:43:17.963Z,33.75
2023-03-03T15:44:17.950Z,33.75
2023-03-03T15:45:17.926Z,33.75
2023-03-03T15:46:17.946Z,33.75
2023-03-03T15:47:17.902Z,33.75
2023-03-03T15:48:17.890Z,33.75
2023-03-03T15:49:17.869Z,33.75
2023-03-03T15:50:17.855Z,33.75
2023-03-03T15:51:17.844Z,28.13
2023-03-03T15:52:17.826Z,28.13
2023-03-03T15:53:17.809Z,28.13
2023-03-03T15:54:17.801Z,28.13
2023-03-03T15:55:17.780Z,28.13
2023-03-03T15:56:17.770Z,28.13
2023-03-03T15:57:17.749Z,28.13
2023-03-03T15:58:17.737Z,28.13
2023-03-03T15:59:17.720Z,28.13
2023-03-03T16:00:17.705Z,22.50
2023-03-03T16:01:17.748Z,22.50
2023-03-03T16:02:17.658Z,22.50
2023-03-03T16:03:17.778Z,22.50
2023-03-03T16:04:17.625Z,22.50
2023-03-03T16:05:17.612Z,22.50
2023-03-03T16:06:17.600Z,22.50
2023-03-03T16:07:17.591Z,22.50
2023-03-03T16:08:17.578Z,22.50
2023-03-03T16:09:17.557Z,16.88
2023-03-03T16:10:17.564Z,16.88
2023-03-03T16:11:17.517Z,16.88
2023-03-03T16:12:17.505Z,16.88
2023-03-03T16:13:17.494Z,16.88
2023-03-03T16:14:17.471Z,16.88
2023-03-03T16:15:17.498Z,16.88
2023-03-03T16:16:17.518Z,16.88
2023-03-03T16:17:17.422Z,16.88
2023-03-03T16:18:17.427Z,16.88
2023-03-03T16:19:17.406Z,16.88
2023-03-03T16:20:17.378Z,16.88
2023-03-03T16:21:17.382Z,16.88
2023-03-03T16:22:17.347Z,16.88
2023-03-03T16:23:17.340Z,16.88
2023-03-03T16:24:17.340Z,16.88
2023-03-03T16:25:17.318Z,16.88
2023-03-03T16:26:17.295Z,11.25
2023-03-03T16:27:17.269Z,11.25